createdAt,value
2018-07-15T00:01:08.451Z,100064.44
2018-07-15T00:03:37.320Z,100064.59
2018-07-15T00:06:06.092Z,100063.02
2018-07-15T00:08:34.852Z,100063.56
2018-07-15T00:11:03.499Z,100134.14
2018-07-15T00:13:32.186Z,100065.11
2018-07-15T00:16:00.833Z,100070.48
2018-07-15T00:18:29.406Z,100061.38
2018-07-15T00:20:58.032Z,100060.11
2018-07-15T00:23:26.755Z,100062.05
2018-07-15T00:25:55.492Z,100060.47
2018-07-15T00:28:24.167Z,100062.80
2018-07-15T00:30:53.062Z,100058.05
2018-07-15T00:33:22.079Z,100055.08
2018-07-15T00:35:50.676Z,100058.73
2018-07-15T00:38:19.252Z,100053.95
2018-07-15T00:40:47.791Z,100051.81
2018-07-15T00:43:16.353Z,100052.83
2018-07-15T00:45:44.889Z,100050.77
2018-07-15T00:48:13.474Z,100053.94
2018-07-15T00:50:42.032Z,100051.82
2018-07-15T00:53:10.639Z,100051.09
2018-07-15T00:55:39.456Z,100054.83
2018-07-15T00:58:08.180Z,100062.47
2018-07-15T01:00:41.974Z,100057.30
2018-07-15T01:03:10.678Z,100058.28
2018-07-15T01:05:39.466Z,100054.44
2018-07-15T01:08:08.485Z,100056.36
2018-07-15T01:10:37.244Z,100053.84
2018-07-15T01:13:06.224Z,100053.11
2018-07-15T01:15:34.849Z,100055.38
2018-07-15T01:18:03.771Z,100055.88
2018-07-15T01:20:32.635Z,100057.20
2018-07-15T01:23:01.260Z,100055.56
2018-07-15T01:25:30.016Z,100052.17
2018-07-15T01:27:58.629Z,100053.56
2018-07-15T01:30:27.407Z,100056.27
2018-07-15T01:32:56.024Z,100055.95
2018-07-15T01:35:24.671Z,100056.02
2018-07-15T01:37:53.467Z,100060.14
2018-07-15T01:40:22.045Z,100057.59
2018-07-15T01:42:50.676Z,100051.03
2018-07-15T01:45:19.452Z,100051.53
2018-07-15T01:47:48.372Z,100051.22
2018-07-15T01:50:17.416Z,100056.59
2018-07-15T01:52:46.441Z,100050.05
2018-07-15T01:55:15.348Z,100046.17
2018-07-15T01:57:44.153Z,100049.37
2018-07-15T02:00:13.123Z,100045.52
2018-07-15T02:02:42.046Z,100047.97
2018-07-15T02:05:11.215Z,100049.34
2018-07-15T02:07:40.075Z,100037.05
2018-07-15T02:10:08.941Z,100040.72
2018-07-15T02:12:37.747Z,100039.50
2018-07-15T02:15:06.580Z,100040.03
2018-07-15T02:17:35.529Z,100040.16
2018-07-15T02:20:04.475Z,100038.54
2018-07-15T02:22:33.505Z,100040.40
2018-07-15T02:25:02.422Z,100040.00
2018-07-15T02:27:31.592Z,100040.93
2018-07-15T02:30:00.402Z,100036.55
2018-07-15T02:32:29.331Z,100039.31
2018-07-15T02:34:58.132Z,100038.52
2018-07-15T02:37:27.009Z,100038.59
2018-07-15T02:39:55.841Z,100033.78
2018-07-15T02:42:24.823Z,100036.04
2018-07-15T02:44:53.754Z,100037.45
2018-07-15T02:47:22.558Z,100037.15
2018-07-15T02:49:51.620Z,100040.34
2018-07-15T02:52:20.594Z,100033.83
2018-07-15T02:54:49.423Z,100035.25
2018-07-15T02:57:18.439Z,100037.16
2018-07-15T02:59:47.297Z,100031.54
2018-07-15T03:02:16.319Z,100029.52
2018-07-15T03:04:45.180Z,100028.71
2018-07-15T03:07:14.038Z,100030.97
2018-07-15T03:09:42.867Z,100030.61
2018-07-15T03:12:11.895Z,100028.94
2018-07-15T03:14:40.587Z,100045.34
2018-07-15T03:17:09.463Z,100023.33
2018-07-15T03:19:38.082Z,100023.02
2018-07-15T03:22:06.751Z,100021.30
2018-07-15T03:24:35.536Z,100030.58
2018-07-15T03:27:04.150Z,100025.84
2018-07-15T03:29:32.780Z,100024.66
2018-07-15T03:32:01.510Z,100022.05
2018-07-15T03:34:30.192Z,100020.72
2018-07-15T03:36:58.834Z,100016.83
2018-07-15T03:39:27.444Z,100020.84
2018-07-15T03:41:56.063Z,100020.89
2018-07-15T03:44:24.800Z,100026.20
2018-07-15T03:46:53.535Z,100026.20
2018-07-15T03:49:22.283Z,100023.50
2018-07-15T03:51:51.018Z,100015.09
2018-07-15T03:54:19.706Z,100023.09
2018-07-15T03:56:48.366Z,100013.42
2018-07-15T03:59:17.274Z,100016.99
2018-07-15T04:01:46.396Z,100018.32
2018-07-15T04:04:15.439Z,100014.74
2018-07-15T04:06:44.553Z,100010.36
2018-07-15T04:09:13.399Z,100006.83
2018-07-15T04:11:42.380Z,100011.34
2018-07-15T04:14:11.474Z,100013.02
2018-07-15T04:16:40.453Z,100009.44
2018-07-15T04:19:10.261Z,100009.44
2018-07-15T04:21:39.539Z,100002.69
2018-07-15T04:24:08.879Z,100004.41
2018-07-15T04:26:37.722Z,100001.76
2018-07-15T04:29:06.529Z,99997.69
2018-07-15T04:31:35.347Z,99999.91
2018-07-15T04:34:04.285Z,99997.73
2018-07-15T04:36:32.989Z,99995.08
2018-07-15T04:39:01.756Z,99998.00
2018-07-15T04:41:30.635Z,99997.42
2018-07-15T04:43:59.555Z,99998.58
2018-07-15T04:46:28.999Z,100002.02
2018-07-15T04:48:57.681Z,100001.88
2018-07-15T04:51:26.334Z,100003.03
2018-07-15T04:53:55.112Z,99995.77
2018-07-15T04:56:23.912Z,99994.21
2018-07-15T04:58:52.637Z,99987.39
2018-07-15T05:01:21.312Z,99985.94
2018-07-15T05:03:50.149Z,99992.91
2018-07-15T05:06:19.280Z,99999.81
2018-07-15T05:08:48.230Z,99994.32
2018-07-15T05:11:16.944Z,99996.25
2018-07-15T05:13:45.895Z,99999.20
2018-07-15T05:16:14.630Z,99997.60
2018-07-15T05:18:43.506Z,99996.91
2018-07-15T05:21:12.312Z,100001.84
2018-07-15T05:23:41.098Z,100002.34
2018-07-15T05:26:10.096Z,100004.73
2018-07-15T05:28:38.960Z,100004.34
2018-07-15T05:31:07.912Z,100008.53
2018-07-15T05:33:36.873Z,100007.31
2018-07-15T05:36:05.695Z,100007.54
2018-07-15T05:38:34.652Z,100004.53
2018-07-15T05:41:03.807Z,100008.66
2018-07-15T05:43:33.195Z,100014.16
2018-07-15T05:46:02.655Z,100017.80
2018-07-15T05:48:32.471Z,100020.50
2018-07-15T05:51:01.573Z,100017.42
2018-07-15T05:53:30.602Z,100020.21
2018-07-15T05:56:00.060Z,100017.41
2018-07-15T05:58:29.362Z,100017.13
2018-07-15T06:00:58.404Z,100021.64
2018-07-15T06:03:27.350Z,100016.57
2018-07-15T06:05:56.858Z,100014.91
2018-07-15T06:08:25.632Z,100014.27
2018-07-15T06:10:54.424Z,100016.47
2018-07-15T06:13:23.236Z,100013.95
2018-07-15T06:15:52.092Z,100018.79
2018-07-15T06:18:20.750Z,100018.01
2018-07-15T06:20:49.775Z,100013.37
2018-07-15T06:23:19.175Z,100004.56
2018-07-15T06:25:48.035Z,100008.52
2018-07-15T06:28:16.927Z,100007.80
2018-07-15T06:30:45.734Z,100010.61
2018-07-15T06:33:14.706Z,100003.51
2018-07-15T06:35:43.488Z,100011.23
2018-07-15T06:38:12.303Z,100011.86
2018-07-15T06:40:41.262Z,100011.85
2018-07-15T06:43:09.914Z,100009.83
2018-07-15T06:45:38.701Z,100006.75
2018-07-15T06:48:07.421Z,100003.08
2018-07-15T06:50:36.286Z,100009.55
2018-07-15T06:53:04.990Z,100014.36
2018-07-15T06:55:33.859Z,100008.53
2018-07-15T06:58:02.514Z,100005.19
2018-07-15T07:00:31.153Z,100002.06
2018-07-15T07:02:59.885Z,100002.53
2018-07-15T07:05:28.514Z,100004.28
2018-07-15T07:07:57.398Z,100003.19
2018-07-15T07:10:25.955Z,99999.80
2018-07-15T07:12:54.822Z,99999.80
2018-07-15T07:15:23.469Z,100001.16
2018-07-15T07:17:52.362Z,100002.25
2018-07-15T07:20:21.415Z,99999.77
2018-07-15T07:22:50.273Z,99999.52
2018-07-15T07:25:18.974Z,100001.32
2018-07-15T07:27:47.853Z,100000.98
2018-07-15T07:30:16.528Z,100000.88
2018-07-15T07:32:45.319Z,100006.88
2018-07-15T07:35:14.099Z,100011.28
2018-07-15T07:37:43.099Z,100012.08
2018-07-15T07:40:12.139Z,100009.68
2018-07-15T07:42:41.195Z,100001.65
2018-07-15T07:45:10.189Z,100010.91
2018-07-15T07:47:39.088Z,100001.62
2018-07-15T07:50:07.894Z,100002.43
2018-07-15T07:52:36.743Z,100004.05
2018-07-15T07:55:05.591Z,100002.66
2018-07-15T07:57:34.257Z,99999.85
2018-07-15T08:00:02.846Z,99993.91
2018-07-15T08:02:31.688Z,99996.95
2018-07-15T08:05:00.389Z,100003.63
2018-07-15T08:07:29.203Z,99997.09
2018-07-15T08:09:58.288Z,99999.33
2018-07-15T08:12:27.180Z,99994.19
2018-07-15T08:14:55.996Z,99992.30
2018-07-15T08:17:24.744Z,99993.30
2018-07-15T08:19:53.548Z,99998.24
2018-07-15T08:22:22.323Z,99989.87
2018-07-15T08:24:51.003Z,99993.11
2018-07-15T08:27:19.896Z,99998.60
2018-07-15T08:29:59.609Z,99986.02
2018-07-15T08:32:28.602Z,99992.52
2018-07-15T08:34:57.484Z,99993.92
2018-07-15T08:37:26.293Z,99987.31
2018-07-15T08:39:55.000Z,99999.45
2018-07-15T08:42:23.687Z,100002.95
2018-07-15T08:44:52.267Z,99985.48
2018-07-15T08:47:21.057Z,99998.06
2018-07-15T08:49:49.676Z,99990.47
2018-07-15T08:52:18.518Z,99987.63
2018-07-15T08:54:47.191Z,99991.63
2018-07-15T08:57:16.135Z,99993.60
2018-07-15T08:59:44.736Z,99990.12
2018-07-15T09:02:13.646Z,99996.14
2018-07-15T09:04:42.175Z,99986.31
2018-07-15T09:07:11.086Z,99984.48
2018-07-15T09:09:40.827Z,99992.49
2018-07-15T09:12:09.469Z,99984.77
2018-07-15T09:14:38.075Z,99988.27
2018-07-15T09:17:06.954Z,99987.41
2018-07-15T09:19:35.843Z,99989.52
2018-07-15T09:22:04.634Z,99986.71
2018-07-15T09:24:34.303Z,99989.48
2018-07-15T09:27:03.258Z,99989.12
2018-07-15T09:29:32.108Z,99987.21
2018-07-15T09:32:00.895Z,99985.37
2018-07-15T09:34:29.759Z,99993.45
2018-07-15T09:36:58.765Z,99987.04
2018-07-15T09:39:27.528Z,99982.97
2018-07-15T09:41:56.688Z,99984.91
2018-07-15T09:44:25.755Z,99990.88
2018-07-15T09:46:54.754Z,99982.47
2018-07-15T09:49:24.146Z,99987.50
2018-07-15T09:51:53.450Z,99986.66
2018-07-15T09:54:22.224Z,99979.89
2018-07-15T09:56:50.963Z,99983.35
2018-07-15T09:59:19.643Z,99973.04
2018-07-15T10:01:48.192Z,99970.84
2018-07-15T10:04:16.921Z,99979.14
2018-07-15T10:06:45.529Z,99975.84
2018-07-15T10:09:14.440Z,99973.50
2018-07-15T10:11:43.123Z,99968.72
2018-07-15T10:14:11.805Z,99974.69
2018-07-15T10:16:40.565Z,99969.30
2018-07-15T10:19:09.222Z,99968.89
2018-07-15T10:21:37.899Z,99966.82
2018-07-15T10:24:06.503Z,99969.44
2018-07-15T10:26:35.178Z,99967.08
2018-07-15T10:29:03.834Z,99963.70
2018-07-15T10:31:32.420Z,99964.97
2018-07-15T10:34:01.048Z,99966.11
2018-07-15T10:36:29.578Z,99964.44
2018-07-15T10:38:58.546Z,99953.78
2018-07-15T10:41:27.450Z,99956.25
2018-07-15T10:43:56.423Z,99949.05
2018-07-15T10:46:25.100Z,99955.14
2018-07-15T10:48:53.863Z,99944.08
2018-07-15T10:51:22.483Z,99942.20
2018-07-15T10:53:51.150Z,99943.05
2018-07-15T10:56:19.768Z,99940.45
2018-07-15T10:58:48.491Z,99937.58
2018-07-15T11:01:17.242Z,99934.83
2018-07-15T11:03:45.864Z,99938.60
2018-07-15T11:06:14.837Z,99937.30
2018-07-15T11:08:43.596Z,99933.04
2018-07-15T11:11:12.619Z,99924.77
2018-07-15T11:13:41.411Z,99929.92
2018-07-15T11:16:10.041Z,99925.83
2018-07-15T11:18:38.754Z,99920.23
2018-07-15T11:21:07.468Z,99915.50
2018-07-15T11:23:36.076Z,99907.32
2018-07-15T11:26:04.739Z,99914.16
2018-07-15T11:28:33.503Z,99921.39
2018-07-15T11:31:02.494Z,99915.41
2018-07-15T11:33:31.019Z,99912.02
2018-07-15T11:35:59.785Z,99915.02
2018-07-15T11:38:28.519Z,99914.66
2018-07-15T11:40:57.125Z,99919.90
2018-07-15T11:43:25.797Z,99914.98
2018-07-15T11:45:54.509Z,99905.54
2018-07-15T11:48:23.258Z,99904.55
2018-07-15T11:50:51.960Z,99903.50
2018-07-15T11:53:20.817Z,99903.67
2018-07-15T11:55:49.611Z,99893.75
2018-07-15T11:58:18.810Z,99883.97
2018-07-15T12:00:47.515Z,99887.62
2018-07-15T12:03:16.546Z,99884.86
2018-07-15T12:05:45.312Z,99873.54
2018-07-15T12:08:14.009Z,99873.48
2018-07-15T12:10:42.719Z,99873.61
2018-07-15T12:13:11.392Z,99870.75
2018-07-15T12:15:40.230Z,99867.63
2018-07-15T12:18:09.122Z,99860.17
2018-07-15T12:20:37.926Z,99862.18
2018-07-15T12:23:06.595Z,99858.14
2018-07-15T12:25:35.328Z,99861.20
2018-07-15T12:28:04.205Z,99858.56
2018-07-15T12:30:33.034Z,99847.26
2018-07-15T12:33:01.788Z,99848.67
2018-07-15T12:35:30.475Z,99838.84
2018-07-15T12:37:59.161Z,99838.77
2018-07-15T12:40:27.961Z,99838.73
2018-07-15T12:42:56.635Z,99835.97
2018-07-15T12:45:25.252Z,99834.27
2018-07-15T12:47:54.005Z,99829.66
2018-07-15T12:50:22.671Z,99834.25
2018-07-15T12:52:51.510Z,99834.02
2018-07-15T12:55:20.331Z,99827.88
2018-07-15T12:57:49.060Z,99826.17
2018-07-15T13:00:17.687Z,99820.41
2018-07-15T13:02:46.302Z,99818.28
2018-07-15T13:05:15.011Z,99807.44
2018-07-15T13:07:43.596Z,99803.48
2018-07-15T13:10:12.208Z,99810.00
2018-07-15T13:12:40.783Z,99801.30
2018-07-15T13:15:09.434Z,99797.48
2018-07-15T13:17:38.100Z,99797.95
2018-07-15T13:20:06.750Z,99797.77
2018-07-15T13:22:35.417Z,99785.59
2018-07-15T13:25:04.011Z,99786.25
2018-07-15T13:27:32.648Z,99781.88
2018-07-15T13:30:01.237Z,99784.28
2018-07-15T13:32:29.916Z,99779.66
2018-07-15T13:34:58.488Z,99776.38
2018-07-15T13:37:27.072Z,99774.84
2018-07-15T13:39:55.770Z,99773.41
2018-07-15T13:42:24.361Z,99772.06
2018-07-15T13:44:53.004Z,99770.97
2018-07-15T13:47:21.628Z,99769.96
2018-07-15T13:49:50.241Z,99763.05
2018-07-15T13:52:18.833Z,99762.38
2018-07-15T13:54:47.469Z,99762.83
2018-07-15T13:57:16.154Z,99760.52
2018-07-15T13:59:44.725Z,99762.49
2018-07-15T14:02:13.383Z,99758.81
2018-07-15T14:04:41.993Z,99758.53
2018-07-15T14:07:10.599Z,99759.09
2018-07-15T14:09:39.163Z,99754.86
2018-07-15T14:12:07.810Z,99753.30
2018-07-15T14:14:36.469Z,99743.02
2018-07-15T14:17:05.156Z,99753.02
2018-07-15T14:19:33.832Z,99744.72
2018-07-15T14:22:02.553Z,99745.91
2018-07-15T14:24:31.221Z,99742.47
2018-07-15T14:26:59.821Z,99744.83
2018-07-15T14:29:28.390Z,99740.39
2018-07-15T14:31:56.990Z,99732.52
2018-07-15T14:34:25.633Z,99738.41
2018-07-15T14:36:54.234Z,99733.00
2018-07-15T14:39:27.826Z,99732.86
2018-07-15T14:41:56.344Z,99726.51
2018-07-15T14:44:24.930Z,99728.48
2018-07-15T14:46:53.519Z,99720.61
2018-07-15T14:49:22.051Z,99726.58
2018-07-15T14:51:50.805Z,99727.86
2018-07-15T14:54:19.450Z,99728.24
2018-07-15T14:56:48.119Z,99722.48
2018-07-15T14:59:16.720Z,99713.88
2018-07-15T15:01:45.356Z,99716.69
2018-07-15T15:04:13.981Z,99719.84
2018-07-15T15:06:42.547Z,99713.53
2018-07-15T15:09:11.084Z,99709.78
2018-07-15T15:11:39.698Z,99724.14
2018-07-15T15:14:08.295Z,99727.64
2018-07-15T15:16:36.834Z,99714.73
2018-07-15T15:19:05.590Z,99720.97
2018-07-15T15:21:34.182Z,99717.70
2018-07-15T15:24:02.791Z,99711.86
2018-07-15T15:26:31.320Z,99710.22
2018-07-15T15:29:00.104Z,99715.69
2018-07-15T15:31:28.730Z,99711.94
2018-07-15T15:33:57.520Z,99707.88
2018-07-15T15:36:26.319Z,99714.29
2018-07-15T15:38:54.861Z,99707.75
2018-07-15T15:41:23.428Z,99712.95
2018-07-15T15:43:52.022Z,99700.65
2018-07-15T15:46:20.629Z,99703.00
2018-07-15T15:48:49.212Z,99695.06
2018-07-15T15:51:17.926Z,99697.03
2018-07-15T15:53:46.718Z,99697.34
2018-07-15T15:56:15.504Z,99688.53
2018-07-15T15:58:44.267Z,99688.45
2018-07-15T16:01:13.179Z,99694.37
2018-07-15T16:03:42.177Z,99688.53
2018-07-15T16:06:11.924Z,99678.94
2018-07-15T16:08:41.639Z,99682.30
2018-07-15T16:11:14.555Z,99679.59
2018-07-15T16:13:48.409Z,99678.24
2018-07-15T16:16:18.432Z,99685.64
2018-07-15T16:18:47.376Z,99692.01
2018-07-15T16:21:17.188Z,99680.42
2018-07-15T16:23:52.676Z,99676.80
2018-07-15T16:26:26.263Z,99680.44
2018-07-15T16:29:03.694Z,99685.25
2018-07-15T16:34:19.391Z,99675.39
2018-07-15T16:36:50.334Z,99680.84
2018-07-15T16:39:19.928Z,99675.88
2018-07-15T16:41:53.593Z,99681.22
2018-07-15T16:44:23.033Z,99681.99
2018-07-15T16:46:52.213Z,99680.78
2018-07-15T16:49:21.241Z,99684.28
2018-07-15T16:51:50.216Z,99681.51
2018-07-15T16:54:19.153Z,99682.05
2018-07-15T16:56:47.756Z,99680.16
2018-07-15T16:59:16.294Z,99677.02
2018-07-15T17:01:46.276Z,99676.83
2018-07-15T17:04:19.332Z,99676.53
2018-07-15T17:06:48.233Z,99675.19
2018-07-15T17:09:17.008Z,99672.84
2018-07-15T17:11:46.543Z,99666.28
2018-07-15T17:14:15.485Z,99661.30
2018-07-15T17:16:45.920Z,99661.37
2018-07-15T17:19:14.644Z,99660.50
2018-07-15T17:21:43.386Z,99655.52
2018-07-15T17:24:12.167Z,99654.45
2018-07-15T17:26:41.536Z,99652.53
2018-07-15T17:29:10.883Z,99644.31
2018-07-15T17:31:40.121Z,99649.13
2018-07-15T17:34:08.813Z,99644.14
2018-07-15T17:36:37.821Z,99648.82
2018-07-15T17:39:06.982Z,99641.11
2018-07-15T17:41:36.500Z,99639.44
2018-07-15T17:44:05.415Z,99639.48
2018-07-15T17:46:34.322Z,99641.75
2018-07-15T17:49:03.379Z,99641.64
2018-07-15T17:51:32.429Z,99643.05
2018-07-15T17:54:01.494Z,99638.22
2018-07-15T17:56:30.422Z,99645.71
2018-07-15T17:58:59.221Z,99645.76
2018-07-15T18:01:27.861Z,99649.45
2018-07-15T18:03:56.559Z,99646.55
2018-07-15T18:06:25.214Z,99650.61
2018-07-15T18:08:53.832Z,99643.91
2018-07-15T18:11:22.447Z,99648.08
2018-07-15T18:13:51.091Z,99651.17
2018-07-15T18:16:19.984Z,99653.75
2018-07-15T18:18:48.640Z,99647.64
2018-07-15T18:21:17.323Z,99649.78
2018-07-15T18:23:46.050Z,99654.56
2018-07-15T18:26:14.836Z,99652.06
2018-07-15T18:28:43.479Z,99658.19
2018-07-15T18:31:12.316Z,99663.45
2018-07-15T18:33:41.169Z,99664.83
2018-07-15T18:36:09.926Z,99668.77
2018-07-15T18:38:38.598Z,99669.88
2018-07-15T18:41:07.598Z,99672.95
2018-07-15T18:43:36.500Z,99679.58
2018-07-15T18:46:05.294Z,99667.97
2018-07-15T18:48:34.044Z,99674.45
2018-07-15T18:51:02.974Z,99672.14
2018-07-15T18:53:31.971Z,99674.38
2018-07-15T18:56:01.794Z,99672.53
2018-07-15T18:58:30.462Z,99676.58
2018-07-15T19:00:59.373Z,99673.53
2018-07-15T19:03:28.105Z,99676.34
2018-07-15T19:05:57.458Z,99672.06
2018-07-15T19:08:26.085Z,99678.77
2018-07-15T19:10:54.771Z,99680.13
2018-07-15T19:13:23.382Z,99682.70
2018-07-15T19:15:52.026Z,99675.63
2018-07-15T19:18:20.796Z,99679.78
2018-07-15T19:20:49.305Z,99687.34
2018-07-15T19:23:17.836Z,99688.69
2018-07-15T19:25:46.508Z,99694.67
2018-07-15T19:28:15.429Z,99700.52
2018-07-15T19:30:44.159Z,99699.79
2018-07-15T19:33:12.843Z,99700.37
2018-07-15T19:35:41.473Z,99701.70
2018-07-15T19:38:10.103Z,99705.69
2018-07-15T19:40:39.116Z,99704.47
2018-07-15T19:43:07.798Z,99710.77
2018-07-15T19:45:36.374Z,99713.08
2018-07-15T19:48:05.063Z,99721.36
2018-07-15T19:50:33.629Z,99724.63
2018-07-15T19:53:02.225Z,99726.16
2018-07-15T19:55:30.945Z,99730.23
2018-07-15T19:57:59.754Z,99722.40
2018-07-15T20:00:28.360Z,99724.69
2018-07-15T20:02:56.979Z,99726.57
2018-07-15T20:05:25.546Z,99729.72
2018-07-15T20:07:54.122Z,99733.81
2018-07-15T20:10:22.775Z,99729.29
2018-07-15T20:12:51.372Z,99729.35
2018-07-15T20:15:20.011Z,99728.95
2018-07-15T20:17:48.601Z,99738.73
2018-07-15T20:20:17.194Z,99738.31
2018-07-15T20:22:45.876Z,99740.18
2018-07-15T20:25:14.590Z,99735.88
2018-07-15T20:27:43.143Z,99734.69
2018-07-15T20:30:11.795Z,99737.91
2018-07-15T20:32:40.380Z,99738.83
2018-07-15T20:35:08.982Z,99742.30
2018-07-15T20:37:37.782Z,99738.22
2018-07-15T20:40:06.405Z,99739.57
2018-07-15T20:42:35.195Z,99737.80
2018-07-15T20:45:04.344Z,99737.75
2018-07-15T20:47:33.102Z,99738.16
2018-07-15T20:50:01.764Z,99741.14
2018-07-15T20:52:30.538Z,99745.97
2018-07-15T20:54:59.292Z,99743.31
2018-07-15T20:57:28.023Z,99749.07
2018-07-15T20:59:56.761Z,99750.09
2018-07-15T21:02:25.546Z,99751.83
2018-07-15T21:04:54.166Z,99749.45
2018-07-15T21:07:23.009Z,99747.55
2018-07-15T21:09:51.840Z,99750.13
2018-07-15T21:12:21.429Z,99757.89
2018-07-15T21:14:50.074Z,99756.94
2018-07-15T21:17:18.794Z,99757.33
2018-07-15T21:19:47.406Z,99762.02
2018-07-15T21:22:16.101Z,99761.47
2018-07-15T21:24:45.327Z,99761.39
2018-07-15T21:27:14.060Z,99763.77
2018-07-15T21:29:42.766Z,99765.78
2018-07-15T21:32:11.652Z,99764.73
2018-07-15T21:34:40.316Z,99764.56
2018-07-15T21:37:09.934Z,99770.20
2018-07-15T21:39:38.666Z,99772.67
2018-07-15T21:42:07.283Z,99763.72
2018-07-15T21:44:36.033Z,99767.06
2018-07-15T21:47:04.588Z,99766.56
2018-07-15T21:49:33.203Z,99771.61
2018-07-15T21:52:01.843Z,99765.30
2018-07-15T21:54:30.465Z,99762.45
2018-07-15T21:56:59.306Z,99761.02
2018-07-15T21:59:28.030Z,99760.81
2018-07-15T22:01:56.682Z,99765.97
2018-07-15T22:04:25.446Z,99769.88
2018-07-15T22:07:05.085Z,99767.48
2018-07-15T22:09:53.477Z,99766.89
2018-07-15T22:12:22.197Z,99764.20
2018-07-15T22:14:50.774Z,99766.77
2018-07-15T22:17:19.626Z,99765.70
2018-07-15T22:19:48.323Z,99764.11
2018-07-15T22:22:17.316Z,99765.14
2018-07-15T22:24:46.039Z,99768.89
2018-07-15T22:27:14.806Z,99765.16
2018-07-15T22:29:43.479Z,99764.52
2018-07-15T22:32:12.149Z,99759.91
2018-07-15T22:34:40.867Z,99760.09
2018-07-15T22:37:09.928Z,99758.16
2018-07-15T22:39:38.547Z,99757.02
2018-07-15T22:42:07.340Z,99760.79
2018-07-15T22:44:36.039Z,99757.93
2018-07-15T22:47:04.737Z,99758.96
2018-07-15T22:49:33.458Z,99761.44
2018-07-15T22:52:02.269Z,99757.59
2018-07-15T22:54:31.003Z,99754.34
2018-07-15T22:56:59.737Z,99753.73
2018-07-15T22:59:28.403Z,99753.05
2018-07-15T23:01:57.183Z,99749.72
2018-07-15T23:04:36.744Z,99750.83
2018-07-15T23:07:05.402Z,99756.34
2018-07-15T23:09:34.135Z,99748.98
2018-07-15T23:12:02.699Z,99749.98
2018-07-15T23:14:31.528Z,99746.16
2018-07-15T23:17:00.137Z,99749.86
2018-07-15T23:19:28.789Z,99753.16
2018-07-15T23:21:57.387Z,99749.42
2018-07-15T23:24:26.060Z,99748.73
2018-07-15T23:26:54.780Z,99746.17
2018-07-15T23:29:23.504Z,99745.94
2018-07-15T23:31:52.202Z,99750.11
2018-07-15T23:34:20.802Z,99750.75
2018-07-15T23:36:49.547Z,99754.05
2018-07-15T23:39:18.187Z,99756.34
2018-07-15T23:41:46.857Z,99759.25
2018-07-15T23:44:15.513Z,99750.10
2018-07-15T23:46:44.336Z,99748.45
2018-07-15T23:49:13.113Z,99752.14
2018-07-15T23:51:41.788Z,99753.27
2018-07-15T23:54:10.433Z,99751.63
2018-07-15T23:56:39.140Z,99750.92
2018-07-15T23:59:07.956Z,99750.61
